Terminal Aerodrome Forecast
Issued by NWS

Home | Current Version | Previous Version | Text Only | Print | Product List | Glossary On
Versions: 1 2 3 4 5 6 7 8 9 10 11 12 13
000
FTUS46 KLOX 181739
TAFSBP
TAF
KSBP 181739Z 1818/1918 30008KT P6SM SKC
     FM182000 31014KT P6SM SCT200
     FM190100 31008KT P6SM SKC
     FM190400 VRB03KT P6SM SKC
     FM190600 VRB03KT 2SM BR OVC002
     FM190800 VRB03KT 1/2SM FG VV001=

USA.gov is the U.S. government's official web portal to all federal, state and local government web resources and services.